sensor_id;sensor_type;location;lat;lon;timestamp;temperature;humidity
23499;DHT22;11926;48.120;11.562;2022-11-20T00:02:29;7.30;93.00
23499;DHT22;11926;48.120;11.562;2022-11-20T00:05:17;7.40;93.00
23499;DHT22;11926;48.120;11.562;2022-11-20T00:08:07;7.40;92.90
23499;DHT22;11926;48.120;11.562;2022-11-20T00:10:54;7.40;92.90
23499;DHT22;11926;48.120;11.562;2022-11-20T00:13:41;7.40;92.90
23499;DHT22;11926;48.120;11.562;2022-11-20T00:16:32;7.40;92.90
23499;DHT22;11926;48.120;11.562;2022-11-20T00:19:20;7.40;92.90
23499;DHT22;11926;48.120;11.562;2022-11-20T00:22:08;7.40;92.90
23499;DHT22;11926;48.120;11.562;2022-11-20T00:24:55;7.40;92.90
23499;DHT22;11926;48.120;11.562;2022-11-20T00:27:43;7.40;92.90
23499;DHT22;11926;48.120;11.562;2022-11-20T00:30:30;7.50;92.90
23499;DHT22;11926;48.120;11.562;2022-11-20T00:33:19;7.50;92.90
23499;DHT22;11926;48.120;11.562;2022-11-20T00:36:08;7.50;92.90
23499;DHT22;11926;48.120;11.562;2022-11-20T00:38:57;7.50;92.90
23499;DHT22;11926;48.120;11.562;2022-11-20T00:41:45;7.50;92.80
23499;DHT22;11926;48.120;11.562;2022-11-20T00:44:32;7.50;92.80
23499;DHT22;11926;48.120;11.562;2022-11-20T00:47:20;7.50;92.80
23499;DHT22;11926;48.120;11.562;2022-11-20T00:50:08;7.50;92.80
23499;DHT22;11926;48.120;11.562;2022-11-20T00:52:56;7.60;92.80
23499;DHT22;11926;48.120;11.562;2022-11-20T00:55:42;7.50;92.70
23499;DHT22;11926;48.120;11.562;2022-11-20T00:58:32;7.50;92.70
23499;DHT22;11926;48.120;11.562;2022-11-20T01:01:20;7.60;92.70
23499;DHT22;11926;48.120;11.562;2022-11-20T01:04:10;7.50;92.70
23499;DHT22;11926;48.120;11.562;2022-11-20T01:06:58;7.60;92.80
23499;DHT22;11926;48.120;11.562;2022-11-20T01:09:45;7.60;92.70
23499;DHT22;11926;48.120;11.562;2022-11-20T01:12:32;7.60;92.70
23499;DHT22;11926;48.120;11.562;2022-11-20T01:15:20;7.60;92.60
23499;DHT22;11926;48.120;11.562;2022-11-20T01:18:07;7.60;92.60
23499;DHT22;11926;48.120;11.562;2022-11-20T01:20:54;7.60;92.60
23499;DHT22;11926;48.120;11.562;2022-11-20T01:23:44;7.60;92.60
23499;DHT22;11926;48.120;11.562;2022-11-20T01:26:33;7.60;92.60
23499;DHT22;11926;48.120;11.562;2022-11-20T01:29:22;7.60;92.60
23499;DHT22;11926;48.120;11.562;2022-11-20T01:32:10;7.60;92.60
23499;DHT22;11926;48.120;11.562;2022-11-20T01:34:57;7.70;92.60
23499;DHT22;11926;48.120;11.562;2022-11-20T01:37:44;7.70;92.60
23499;DHT22;11926;48.120;11.562;2022-11-20T01:40:33;7.70;92.50
23499;DHT22;11926;48.120;11.562;2022-11-20T01:43:21;7.70;92.50
23499;DHT22;11926;48.120;11.562;2022-11-20T01:46:15;7.70;92.50
23499;DHT22;11926;48.120;11.562;2022-11-20T01:49:05;7.70;92.40
23499;DHT22;11926;48.120;11.562;2022-11-20T01:51:58;7.70;92.40
23499;DHT22;11926;48.120;11.562;2022-11-20T01:54:50;7.70;92.40
23499;DHT22;11926;48.120;11.562;2022-11-20T01:57:41;7.70;92.50
23499;DHT22;11926;48.120;11.562;2022-11-20T02:00:31;7.70;92.50
23499;DHT22;11926;48.120;11.562;2022-11-20T02:03:19;7.70;92.40
23499;DHT22;11926;48.120;11.562;2022-11-20T02:06:13;7.70;92.40
23499;DHT22;11926;48.120;11.562;2022-11-20T02:09:02;7.70;92.40
23499;DHT22;11926;48.120;11.562;2022-11-20T02:11:49;7.70;92.50
23499;DHT22;11926;48.120;11.562;2022-11-20T02:14:38;7.70;92.50
23499;DHT22;11926;48.120;11.562;2022-11-20T02:17:25;7.70;92.50
23499;DHT22;11926;48.120;11.562;2022-11-20T02:20:13;7.60;92.50
23499;DHT22;11926;48.120;11.562;2022-11-20T02:23:03;7.70;92.40
23499;DHT22;11926;48.120;11.562;2022-11-20T02:25:53;7.70;92.40
23499;DHT22;11926;48.120;11.562;2022-11-20T02:28:41;7.60;92.40
23499;DHT22;11926;48.120;11.562;2022-11-20T02:31:29;7.60;92.40
23499;DHT22;11926;48.120;11.562;2022-11-20T02:34:20;7.60;92.40
23499;DHT22;11926;48.120;11.562;2022-11-20T02:37:07;7.60;92.80
23499;DHT22;11926;48.120;11.562;2022-11-20T02:39:55;7.60;92.40
23499;DHT22;11926;48.120;11.562;2022-11-20T02:42:43;7.60;92.30
23499;DHT22;11926;48.120;11.562;2022-11-20T02:45:31;7.60;92.20
23499;DHT22;11926;48.120;11.562;2022-11-20T02:48:18;7.60;92.30
23499;DHT22;11926;48.120;11.562;2022-11-20T02:51:05;7.50;92.20
23499;DHT22;11926;48.120;11.562;2022-11-20T02:53:52;7.50;92.20
23499;DHT22;11926;48.120;11.562;2022-11-20T02:56:42;7.50;92.20
23499;DHT22;11926;48.120;11.562;2022-11-20T02:59:31;7.50;92.20
23499;DHT22;11926;48.120;11.562;2022-11-20T03:02:18;7.50;92.20
23499;DHT22;11926;48.120;11.562;2022-11-20T03:05:07;7.50;92.10
23499;DHT22;11926;48.120;11.562;2022-11-20T03:07:54;7.50;92.20
23499;DHT22;11926;48.120;11.562;2022-11-20T03:10:41;7.50;92.20
23499;DHT22;11926;48.120;11.562;2022-11-20T03:13:29;7.50;92.20
23499;DHT22;11926;48.120;11.562;2022-11-20T03:16:19;7.50;92.20
23499;DHT22;11926;48.120;11.562;2022-11-20T03:19:07;7.60;92.10
23499;DHT22;11926;48.120;11.562;2022-11-20T03:21:55;7.60;92.10
23499;DHT22;11926;48.120;11.562;2022-11-20T03:24:42;7.60;92.00
23499;DHT22;11926;48.120;11.562;2022-11-20T03:27:32;7.60;92.00
23499;DHT22;11926;48.120;11.562;2022-11-20T03:30:20;7.50;92.00
23499;DHT22;11926;48.120;11.562;2022-11-20T03:33:16;7.50;91.90
23499;DHT22;11926;48.120;11.562;2022-11-20T03:36:08;7.50;91.90
23499;DHT22;11926;48.120;11.562;2022-11-20T03:38:57;7.50;91.90
23499;DHT22;11926;48.120;11.562;2022-11-20T03:41:44;7.60;91.90
23499;DHT22;11926;48.120;11.562;2022-11-20T03:44:32;7.50;91.80
23499;DHT22;11926;48.120;11.562;2022-11-20T03:47:19;7.50;91.80
23499;DHT22;11926;48.120;11.562;2022-11-20T03:50:09;7.50;91.80
23499;DHT22;11926;48.120;11.562;2022-11-20T03:52:58;7.50;91.80
23499;DHT22;11926;48.120;11.562;2022-11-20T03:55:50;7.50;91.80
23499;DHT22;11926;48.120;11.562;2022-11-20T03:58:39;7.50;91.70
23499;DHT22;11926;48.120;11.562;2022-11-20T04:01:28;7.50;91.80
23499;DHT22;11926;48.120;11.562;2022-11-20T04:04:16;7.50;91.70
23499;DHT22;11926;48.120;11.562;2022-11-20T04:07:06;7.50;91.80
23499;DHT22;11926;48.120;11.562;2022-11-20T04:09:54;7.40;91.70
23499;DHT22;11926;48.120;11.562;2022-11-20T04:12:41;7.40;91.70
23499;DHT22;11926;48.120;11.562;2022-11-20T04:15:29;7.50;91.70
23499;DHT22;11926;48.120;11.562;2022-11-20T04:18:23;7.50;91.70
23499;DHT22;11926;48.120;11.562;2022-11-20T04:21:11;7.40;91.70
23499;DHT22;11926;48.120;11.562;2022-11-20T04:24:00;7.40;91.60
23499;DHT22;11926;48.120;11.562;2022-11-20T04:26:48;7.40;91.60
23499;DHT22;11926;48.120;11.562;2022-11-20T04:29:35;7.40;91.60
23499;DHT22;11926;48.120;11.562;2022-11-20T04:32:22;7.40;91.60
23499;DHT22;11926;48.120;11.562;2022-11-20T04:35:10;7.40;91.60
23499;DHT22;11926;48.120;11.562;2022-11-20T04:37:57;7.40;91.50
23499;DHT22;11926;48.120;11.562;2022-11-20T04:40:46;7.40;91.50
23499;DHT22;11926;48.120;11.562;2022-11-20T04:43:34;7.50;91.50
23499;DHT22;11926;48.120;11.562;2022-11-20T04:46:22;7.50;91.60
23499;DHT22;11926;48.120;11.562;2022-11-20T04:49:11;7.50;91.50
23499;DHT22;11926;48.120;11.562;2022-11-20T04:51:58;7.50;91.50
23499;DHT22;11926;48.120;11.562;2022-11-20T04:54:46;7.50;91.90
23499;DHT22;11926;48.120;11.562;2022-11-20T04:57:35;7.50;91.40
23499;DHT22;11926;48.120;11.562;2022-11-20T05:00:23;7.50;91.40
23499;DHT22;11926;48.120;11.562;2022-11-20T05:03:11;7.50;91.40
23499;DHT22;11926;48.120;11.562;2022-11-20T05:06:00;7.40;91.40
23499;DHT22;11926;48.120;11.562;2022-11-20T05:08:48;7.40;91.40
23499;DHT22;11926;48.120;11.562;2022-11-20T05:11:35;7.40;91.40
